Liverpool Bay, Canada
Current Conditions -  °F | °C
As of 9:00 PM on Friday 28 Nov 2014 (Local Time) from CYUB Reporting Station
Overcast Overcast  
Wind Chill: -21°   Ceiling: 1400
Heat Index:   Visibility: 15mi
Dew Point: -9°   Wind: 16mph
Humidity: 66%   Direction: 20°NNE
Pressure: 30.14"   Gusts: NA
Location:  69.6°N, 130.9°W
Report Text: CYUB 290400Z 02014KT 15SM OVC014 M18/M23 A3014 RMK SC8 SLP208
Loading
Personal Weather Stations






























Interactive Weather Map New forecast layout! Learn more

10-Day Weather Forecast

Advertisements
Track Severe Weather on mobile